Gatlinburg, Tennessee
Current Conditions -  °F | °C
As of 1:55 AM on Friday 28 Nov 2014 (Local Time) from KGKT Reporting Station
Overcast Overcast  
Wind Chill: 28°   Ceiling: 4100
Heat Index: 28°   Visibility: 10mi
Dew Point: 23°   Wind: 0mph
Humidity: 80%   Direction: NA
Pressure: 30.37"   Gusts: NA
Location:  35.71°N, 83.51°W
Report Text: KGKT 280655Z AUTO 00000KT 10SM OVC041 M02/M05 A3037 RMK
Loading
Personal Weather Stations






























Interactive Weather Map New forecast layout! Learn more

10-Day Weather Forecast

Advertisements
Track Severe Weather on mobile